sensor_id;sensor_type;location;lat;lon;timestamp;pressure;altitude;pressure_sealevel;temperature;humidity
79142;BME280;68550;-26.480;29.234;2024-01-30T00:00:27;84495.93;;;27.54;39.61
79142;BME280;68550;-26.480;29.234;2024-01-30T00:02:52;84492.20;;;27.84;39.53
79142;BME280;68550;-26.480;29.234;2024-01-30T00:05:18;84488.46;;;27.61;39.43
79142;BME280;68550;-26.480;29.234;2024-01-30T00:07:46;84484.44;;;27.58;39.61
79142;BME280;68550;-26.480;29.234;2024-01-30T00:10:09;84479.35;;;27.50;39.65
79142;BME280;68550;-26.480;29.234;2024-01-30T00:12:34;84472.79;;;27.69;39.38
79142;BME280;68550;-26.480;29.234;2024-01-30T00:15:00;84467.61;;;27.72;39.37
79142;BME280;68550;-26.480;29.234;2024-01-30T00:19:58;84461.71;;;27.89;39.11
79142;BME280;68550;-26.480;29.234;2024-01-30T00:22:16;84459.06;;;27.82;39.16
79142;BME280;68550;-26.480;29.234;2024-01-30T00:24:42;84459.68;;;27.90;39.07
79142;BME280;68550;-26.480;29.234;2024-01-30T00:27:08;84458.08;;;28.03;38.92
79142;BME280;68550;-26.480;29.234;2024-01-30T00:29:33;84457.70;;;28.06;38.83
79142;BME280;68550;-26.480;29.234;2024-01-30T00:32:03;84455.21;;;27.79;38.98
79142;BME280;68550;-26.480;29.234;2024-01-30T00:34:23;84451.87;;;27.77;39.01
79142;BME280;68550;-26.480;29.234;2024-01-30T00:36:48;84446.26;;;27.97;38.84
79142;BME280;68550;-26.480;29.234;2024-01-30T00:39:14;84442.30;;;28.04;38.76
79142;BME280;68550;-26.480;29.234;2024-01-30T00:41:39;84440.78;;;27.97;38.80
79142;BME280;68550;-26.480;29.234;2024-01-30T00:44:05;84445.19;;;27.92;38.86
79142;BME280;68550;-26.480;29.234;2024-01-30T00:46:30;84446.35;;;27.97;38.79
79142;BME280;68550;-26.480;29.234;2024-01-30T00:48:57;84444.44;;;28.06;38.95
79142;BME280;68550;-26.480;29.234;2024-01-30T00:51:21;84442.75;;;27.72;39.05
79142;BME280;68550;-26.480;29.234;2024-01-30T00:53:57;84441.96;;;27.77;39.01
79142;BME280;68550;-26.480;29.234;2024-01-30T00:56:12;84437.46;;;27.80;38.95
79142;BME280;68550;-26.480;29.234;2024-01-30T00:58:47;84435.40;;;27.83;38.87
79142;BME280;68550;-26.480;29.234;2024-01-30T01:01:07;84433.47;;;27.67;39.06
79142;BME280;68550;-26.480;29.234;2024-01-30T01:03:28;84425.19;;;27.59;39.07
79142;BME280;68550;-26.480;29.234;2024-01-30T01:05:53;84418.87;;;27.47;39.18
79142;BME280;68550;-26.480;29.234;2024-01-30T01:08:19;84417.78;;;27.49;39.10
79142;BME280;68550;-26.480;29.234;2024-01-30T01:10:54;84416.30;;;27.54;39.03
79142;BME280;68550;-26.480;29.234;2024-01-30T01:13:09;84411.96;;;27.63;38.89
79142;BME280;68550;-26.480;29.234;2024-01-30T01:15:35;84401.14;;;27.79;38.69
79142;BME280;68550;-26.480;29.234;2024-01-30T01:18:00;84400.36;;;27.80;38.68
79142;BME280;68550;-26.480;29.234;2024-01-30T01:20:26;84402.35;;;27.56;38.91
79142;BME280;68550;-26.480;29.234;2024-01-30T01:22:51;84403.22;;;27.54;38.89
79142;BME280;68550;-26.480;29.234;2024-01-30T01:25:21;84404.70;;;27.57;38.89
79142;BME280;68550;-26.480;29.234;2024-01-30T01:27:42;84405.70;;;27.51;38.95
79142;BME280;68550;-26.480;29.234;2024-01-30T01:30:10;84404.45;;;27.43;39.04
79142;BME280;68550;-26.480;29.234;2024-01-30T01:32:33;84405.07;;;27.48;39.08
79142;BME280;68550;-26.480;29.234;2024-01-30T01:34:58;84407.46;;;27.49;39.06
79142;BME280;68550;-26.480;29.234;2024-01-30T01:37:25;84410.07;;;27.46;39.07
79142;BME280;68550;-26.480;29.234;2024-01-30T01:39:50;84411.04;;;27.26;38.98
79142;BME280;68550;-26.480;29.234;2024-01-30T01:42:33;84412.90;;;27.41;39.11
79142;BME280;68550;-26.480;29.234;2024-01-30T01:44:39;84411.60;;;27.48;39.00
79142;BME280;68550;-26.480;29.234;2024-01-30T01:47:05;84410.00;;;27.47;39.01
79142;BME280;68550;-26.480;29.234;2024-01-30T01:49:30;84408.30;;;27.32;39.14
79142;BME280;68550;-26.480;29.234;2024-01-30T01:51:57;84408.70;;;27.31;39.15
79142;BME280;68550;-26.480;29.234;2024-01-30T01:54:21;84412.61;;;27.30;39.21
79142;BME280;68550;-26.480;29.234;2024-01-30T01:56:47;84416.04;;;27.29;39.21
79142;BME280;68550;-26.480;29.234;2024-01-30T01:59:12;84418.64;;;27.24;39.22
79142;BME280;68550;-26.480;29.234;2024-01-30T02:01:41;84419.49;;;27.54;39.06
79142;BME280;68550;-26.480;29.234;2024-01-30T02:04:03;84419.77;;;27.40;38.88
79142;BME280;68550;-26.480;29.234;2024-01-30T02:06:28;84419.08;;;27.04;39.01
79142;BME280;68550;-26.480;29.234;2024-01-30T02:08:53;84417.73;;;27.51;38.99
79142;BME280;68550;-26.480;29.234;2024-01-30T02:11:19;84418.29;;;27.27;39.00
79142;BME280;68550;-26.480;29.234;2024-01-30T02:13:45;84420.66;;;27.18;39.09
79142;BME280;68550;-26.480;29.234;2024-01-30T02:16:10;84422.79;;;27.27;38.97
79142;BME280;68550;-26.480;29.234;2024-01-30T02:18:35;84422.77;;;27.32;38.92
79142;BME280;68550;-26.480;29.234;2024-01-30T02:21:03;84423.00;;;27.30;38.92
79142;BME280;68550;-26.480;29.234;2024-01-30T02:23:25;84422.08;;;27.28;38.93
79142;BME280;68550;-26.480;29.234;2024-01-30T02:25:51;84421.59;;;27.80;38.86
79142;BME280;68550;-26.480;29.234;2024-01-30T02:28:18;84423.56;;;27.76;38.67
79142;BME280;68550;-26.480;29.234;2024-01-30T02:30:43;84421.39;;;27.50;38.69
79142;BME280;68550;-26.480;29.234;2024-01-30T02:33:07;84422.16;;;27.51;38.96
79142;BME280;68550;-26.480;29.234;2024-01-30T02:35:35;84420.61;;;27.56;38.59
79142;BME280;68550;-26.480;29.234;2024-01-30T02:37:58;84417.47;;;27.64;38.47
79142;BME280;68550;-26.480;29.234;2024-01-30T02:40:23;84416.22;;;27.48;38.60
79142;BME280;68550;-26.480;29.234;2024-01-30T02:42:51;84413.84;;;27.72;38.51
79142;BME280;68550;-26.480;29.234;2024-01-30T02:45:17;84414.20;;;27.19;38.78
79142;BME280;68550;-26.480;29.234;2024-01-30T02:47:41;84413.34;;;27.48;38.41
79142;BME280;68550;-26.480;29.234;2024-01-30T02:50:06;84412.66;;;27.26;38.63
79142;BME280;68550;-26.480;29.234;2024-01-30T02:52:31;84414.18;;;27.24;38.61
79142;BME280;68550;-26.480;29.234;2024-01-30T02:54:59;84415.39;;;27.42;38.67
79142;BME280;68550;-26.480;29.234;2024-01-30T02:57:24;84421.76;;;27.10;38.70
79142;BME280;68550;-26.480;29.234;2024-01-30T02:59:47;84418.79;;;27.34;38.74
79142;BME280;68550;-26.480;29.234;2024-01-30T03:02:12;84416.21;;;27.12;38.69
79142;BME280;68550;-26.480;29.234;2024-01-30T03:04:38;84415.06;;;27.37;38.69
79142;BME280;68550;-26.480;29.234;2024-01-30T03:07:05;84417.62;;;27.11;38.70
79142;BME280;68550;-26.480;29.234;2024-01-30T03:09:28;84422.19;;;27.18;38.61
79142;BME280;68550;-26.480;29.234;2024-01-30T03:11:54;84424.30;;;27.16;38.62
79142;BME280;68550;-26.480;29.234;2024-01-30T03:14:19;84427.77;;;27.21;38.51
79142;BME280;68550;-26.480;29.234;2024-01-30T03:16:45;84428.78;;;27.16;38.57
79142;BME280;68550;-26.480;29.234;2024-01-30T03:19:18;84426.29;;;27.16;38.56
79142;BME280;68550;-26.480;29.234;2024-01-30T03:21:36;84425.01;;;27.13;38.56
79142;BME280;68550;-26.480;29.234;2024-01-30T03:24:02;84425.48;;;27.24;38.32
79142;BME280;68550;-26.480;29.234;2024-01-30T03:26:27;84422.75;;;27.64;38.30
79142;BME280;68550;-26.480;29.234;2024-01-30T03:28:53;84424.44;;;27.16;38.24
79142;BME280;68550;-26.480;29.234;2024-01-30T03:31:21;84429.45;;;27.07;38.35
79142;BME280;68550;-26.480;29.234;2024-01-30T03:33:44;84430.97;;;26.89;38.46
79142;BME280;68550;-26.480;29.234;2024-01-30T03:36:10;84436.09;;;27.03;38.28
79142;BME280;68550;-26.480;29.234;2024-01-30T03:38:34;84437.44;;;27.24;38.34
79142;BME280;68550;-26.480;29.234;2024-01-30T03:41:00;84440.42;;;27.54;38.17
79142;BME280;68550;-26.480;29.234;2024-01-30T03:43:26;84444.52;;;27.24;37.92
79142;BME280;68550;-26.480;29.234;2024-01-30T03:45:51;84448.19;;;27.25;37.84
79142;BME280;68550;-26.480;29.234;2024-01-30T03:48:16;84447.27;;;27.28;37.99
79142;BME280;68550;-26.480;29.234;2024-01-30T03:50:42;84449.50;;;27.14;38.25
79142;BME280;68550;-26.480;29.234;2024-01-30T03:53:07;84453.59;;;27.37;38.31
79142;BME280;68550;-26.480;29.234;2024-01-30T03:55:32;84454.51;;;26.95;38.16
79142;BME280;68550;-26.480;29.234;2024-01-30T03:57:57;84460.67;;;26.90;38.24
79142;BME280;68550;-26.480;29.234;2024-01-30T04:00:25;84460.84;;;26.94;38.20
79142;BME280;68550;-26.480;29.234;2024-01-30T04:02:48;84464.03;;;27.01;38.08
79142;BME280;68550;-26.480;29.234;2024-01-30T04:05:14;84466.10;;;27.02;38.08
79142;BME280;68550;-26.480;29.234;2024-01-30T04:07:39;84468.78;;;27.06;38.05
79142;BME280;68550;-26.480;29.234;2024-01-30T04:10:05;84470.93;;;27.07;38.01
79142;BME280;68550;-26.480;29.234;2024-01-30T04:12:31;84471.69;;;27.19;38.10
79142;BME280;68550;-26.480;29.234;2024-01-30T04:14:55;84473.51;;;27.30;37.99
79142;BME280;68550;-26.480;29.234;2024-01-30T04:17:20;84475.84;;;27.12;37.95
79142;BME280;68550;-26.480;29.234;2024-01-30T04:19:45;84475.60;;;27.02;38.00
79142;BME280;68550;-26.480;29.234;2024-01-30T04:22:11;84479.67;;;26.99;38.04
79142;BME280;68550;-26.480;29.234;2024-01-30T04:24:36;84481.69;;;27.18;38.07
79142;BME280;68550;-26.480;29.234;2024-01-30T04:27:03;84483.14;;;27.02;37.99
79142;BME280;68550;-26.480;29.234;2024-01-30T04:29:26;84485.66;;;27.32;37.59
79142;BME280;68550;-26.480;29.234;2024-01-30T04:31:51;84487.84;;;27.60;37.53
79142;BME280;68550;-26.480;29.234;2024-01-30T04:34:22;84498.20;;;27.12;37.87
79142;BME280;68550;-26.480;29.234;2024-01-30T04:36:46;84501.93;;;27.41;38.07
79142;BME280;68550;-26.480;29.234;2024-01-30T04:39:08;84502.09;;;26.96;38.01
79142;BME280;68550;-26.480;29.234;2024-01-30T04:41:33;84503.18;;;27.36;38.14
79142;BME280;68550;-26.480;29.234;2024-01-30T04:43:58;84500.03;;;27.17;38.05
79142;BME280;68550;-26.480;29.234;2024-01-30T04:46:23;84500.91;;;27.26;37.97
79142;BME280;68550;-26.480;29.234;2024-01-30T04:48:49;84501.18;;;27.14;38.09
79142;BME280;68550;-26.480;29.234;2024-01-30T04:51:14;84503.48;;;27.40;38.06
79142;BME280;68550;-26.480;29.234;2024-01-30T04:53:39;84506.10;;;27.16;38.08
79142;BME280;68550;-26.480;29.234;2024-01-30T04:56:06;84509.70;;;27.41;38.13
79142;BME280;68550;-26.480;29.234;2024-01-30T04:58:30;84513.31;;;27.13;38.20
79142;BME280;68550;-26.480;29.234;2024-01-30T05:01:00;84516.34;;;27.13;38.26
79142;BME280;68550;-26.480;29.234;2024-01-30T05:03:21;84517.83;;;27.17;38.25
79142;BME280;68550;-26.480;29.234;2024-01-30T05:05:46;84518.13;;;27.15;38.29
79142;BME280;68550;-26.480;29.234;2024-01-30T05:08:12;84520.47;;;27.17;38.31
79142;BME280;68550;-26.480;29.234;2024-01-30T05:10:43;84521.45;;;27.42;38.33
79142;BME280;68550;-26.480;29.234;2024-01-30T05:13:03;84523.71;;;26.98;38.35
79142;BME280;68550;-26.480;29.234;2024-01-30T05:15:29;84521.76;;;27.20;38.54
79142;BME280;68550;-26.480;29.234;2024-01-30T05:17:54;84521.68;;;27.03;38.50
79142;BME280;68550;-26.480;29.234;2024-01-30T05:20:19;84521.83;;;27.08;38.50
79142;BME280;68550;-26.480;29.234;2024-01-30T05:22:45;84522.94;;;27.62;38.10
79142;BME280;68550;-26.480;29.234;2024-01-30T05:25:10;84527.49;;;27.49;38.30
79142;BME280;68550;-26.480;29.234;2024-01-30T05:27:35;84529.76;;;27.15;38.45
79142;BME280;68550;-26.480;29.234;2024-01-30T05:30:01;84532.30;;;27.20;38.36
79142;BME280;68550;-26.480;29.234;2024-01-30T05:32:26;84527.32;;;27.20;38.23
79142;BME280;68550;-26.480;29.234;2024-01-30T05:34:52;84534.26;;;27.29;38.22
79142;BME280;68550;-26.480;29.234;2024-01-30T05:37:17;84540.13;;;27.02;38.51
79142;BME280;68550;-26.480;29.234;2024-01-30T05:39:43;84543.57;;;27.62;38.37
79142;BME280;68550;-26.480;29.234;2024-01-30T05:42:09;84549.14;;;27.52;38.23
79142;BME280;68550;-26.480;29.234;2024-01-30T05:44:34;84550.05;;;27.09;38.50
79142;BME280;68550;-26.480;29.234;2024-01-30T05:46:59;84551.16;;;27.12;38.33
79142;BME280;68550;-26.480;29.234;2024-01-30T05:49:24;84551.60;;;27.34;38.42
79142;BME280;68550;-26.480;29.234;2024-01-30T05:51:50;84555.22;;;27.05;38.47
79142;BME280;68550;-26.480;29.234;2024-01-30T05:54:17;84556.65;;;27.25;38.44
79142;BME280;68550;-26.480;29.234;2024-01-30T05:56:40;84557.21;;;27.08;38.48
79142;BME280;68550;-26.480;29.234;2024-01-30T05:59:06;84560.80;;;27.24;38.15
79142;BME280;68550;-26.480;29.234;2024-01-30T06:01:31;84565.37;;;27.18;38.38
79142;BME280;68550;-26.480;29.234;2024-01-30T06:03:59;84568.19;;;27.14;38.50
79142;BME280;68550;-26.480;29.234;2024-01-30T06:06:22;84570.63;;;27.19;38.30
79142;BME280;68550;-26.480;29.234;2024-01-30T06:08:47;84574.48;;;27.18;38.30
79142;BME280;68550;-26.480;29.234;2024-01-30T06:11:12;84575.81;;;27.11;38.59
79142;BME280;68550;-26.480;29.234;2024-01-30T06:13:37;84574.25;;;27.23;38.57
79142;BME280;68550;-26.480;29.234;2024-01-30T06:16:02;84572.01;;;27.21;38.75
79142;BME280;68550;-26.480;29.234;2024-01-30T06:18:32;84569.80;;;27.34;38.66
79142;BME280;68550;-26.480;29.234;2024-01-30T06:20:54;84571.54;;;27.40;38.51
79142;BME280;68550;-26.480;29.234;2024-01-30T06:23:19;84569.54;;;27.63;38.49
79142;BME280;68550;-26.480;29.234;2024-01-30T06:25:44;84564.65;;;27.39;38.73
79142;BME280;68550;-26.480;29.234;2024-01-30T06:28:10;84562.67;;;27.42;38.70
79142;BME280;68550;-26.480;29.234;2024-01-30T06:30:37;84561.38;;;27.35;38.88
79142;BME280;68550;-26.480;29.234;2024-01-30T06:33:05;84560.42;;;27.74;38.56
79142;BME280;68550;-26.480;29.234;2024-01-30T06:35:31;84556.31;;;27.76;38.50
79142;BME280;68550;-26.480;29.234;2024-01-30T06:37:52;84552.31;;;27.69;38.31
79142;BME280;68550;-26.480;29.234;2024-01-30T06:40:17;84556.45;;;27.65;38.72
79142;BME280;68550;-26.480;29.234;2024-01-30T06:42:43;84556.76;;;27.42;38.85
79142;BME280;68550;-26.480;29.234;2024-01-30T06:45:09;84556.43;;;27.61;39.04
79142;BME280;68550;-26.480;29.234;2024-01-30T06:47:33;84557.04;;;27.45;38.57
79142;BME280;68550;-26.480;29.234;2024-01-30T06:49:59;84555.97;;;27.36;38.73
79142;BME280;68550;-26.480;29.234;2024-01-30T06:52:24;84554.44;;;27.71;38.55
79142;BME280;68550;-26.480;29.234;2024-01-30T06:54:50;84551.67;;;27.48;38.72
79142;BME280;68550;-26.480;29.234;2024-01-30T06:57:16;84551.21;;;27.28;39.10
79142;BME280;68550;-26.480;29.234;2024-01-30T06:59:41;84551.56;;;27.40;38.68
79142;BME280;68550;-26.480;29.234;2024-01-30T07:02:06;84555.01;;;27.46;39.42
79142;BME280;68550;-26.480;29.234;2024-01-30T07:04:31;84556.39;;;27.34;39.28
79142;BME280;68550;-26.480;29.234;2024-01-30T07:07:00;84552.71;;;27.43;39.34
79142;BME280;68550;-26.480;29.234;2024-01-30T07:09:27;84547.64;;;27.70;39.01
79142;BME280;68550;-26.480;29.234;2024-01-30T07:11:53;84546.11;;;27.52;38.87
79142;BME280;68550;-26.480;29.234;2024-01-30T07:14:13;84549.19;;;27.43;39.34
79142;BME280;68550;-26.480;29.234;2024-01-30T07:16:47;84549.18;;;27.47;38.88
79142;BME280;68550;-26.480;29.234;2024-01-30T07:19:03;84549.51;;;27.79;38.26
79142;BME280;68550;-26.480;29.234;2024-01-30T07:21:28;84548.95;;;28.43;38.27
79142;BME280;68550;-26.480;29.234;2024-01-30T07:23:54;84546.89;;;27.81;38.37
79142;BME280;68550;-26.480;29.234;2024-01-30T07:26:19;84547.34;;;27.72;38.84
79142;BME280;68550;-26.480;29.234;2024-01-30T07:28:44;84548.88;;;27.72;38.85
79142;BME280;68550;-26.480;29.234;2024-01-30T07:31:10;84545.38;;;27.81;38.50
79142;BME280;68550;-26.480;29.234;2024-01-30T07:33:35;84547.22;;;27.85;38.49
79142;BME280;68550;-26.480;29.234;2024-01-30T07:36:08;84546.22;;;27.53;38.71
79142;BME280;68550;-26.480;29.234;2024-01-30T07:38:26;84545.26;;;27.61;38.74
79142;BME280;68550;-26.480;29.234;2024-01-30T07:40:51;84541.46;;;27.58;38.91
79142;BME280;68550;-26.480;29.234;2024-01-30T07:43:17;84541.29;;;28.03;38.65
79142;BME280;68550;-26.480;29.234;2024-01-30T07:45:42;84539.00;;;27.87;38.84
79142;BME280;68550;-26.480;29.234;2024-01-30T07:48:10;84538.97;;;27.95;38.37
79142;BME280;68550;-26.480;29.234;2024-01-30T07:50:33;84542.39;;;27.78;38.64
79142;BME280;68550;-26.480;29.234;2024-01-30T07:53:00;84540.89;;;27.95;38.56
79142;BME280;68550;-26.480;29.234;2024-01-30T07:55:24;84541.71;;;27.77;38.77
79142;BME280;68550;-26.480;29.234;2024-01-30T07:57:51;84539.94;;;27.79;38.86
79142;BME280;68550;-26.480;29.234;2024-01-30T08:00:17;84543.76;;;27.64;39.01
79142;BME280;68550;-26.480;29.234;2024-01-30T08:02:40;84542.49;;;28.01;38.65
79142;BME280;68550;-26.480;29.234;2024-01-30T08:05:06;84546.76;;;27.65;39.04
79142;BME280;68550;-26.480;29.234;2024-01-30T08:07:31;84549.01;;;27.94;39.06
79142;BME280;68550;-26.480;29.234;2024-01-30T08:09:56;84545.90;;;28.00;38.95
79142;BME280;68550;-26.480;29.234;2024-01-30T08:12:23;84545.85;;;28.22;38.33
79142;BME280;68550;-26.480;29.234;2024-01-30T08:14:47;84547.01;;;28.08;38.50
79142;BME280;68550;-26.480;29.234;2024-01-30T08:17:13;84545.14;;;28.07;38.65
79142;BME280;68550;-26.480;29.234;2024-01-30T08:19:38;84544.77;;;28.15;38.54
79142;BME280;68550;-26.480;29.234;2024-01-30T08:22:04;84545.21;;;28.08;38.58
79142;BME280;68550;-26.480;29.234;2024-01-30T08:24:32;84546.06;;;27.86;39.28
79142;BME280;68550;-26.480;29.234;2024-01-30T08:26:56;84548.43;;;28.03;39.23
79142;BME280;68550;-26.480;29.234;2024-01-30T08:29:19;84544.60;;;28.15;38.87
79142;BME280;68550;-26.480;29.234;2024-01-30T08:31:47;84540.48;;;28.03;38.89
79142;BME280;68550;-26.480;29.234;2024-01-30T08:34:10;84543.27;;;27.59;39.13
79142;BME280;68550;-26.480;29.234;2024-01-30T08:36:37;84542.73;;;27.81;38.83
79142;BME280;68550;-26.480;29.234;2024-01-30T08:39:00;84538.96;;;27.87;39.02
79142;BME280;68550;-26.480;29.234;2024-01-30T08:41:26;84534.02;;;27.96;39.05
79142;BME280;68550;-26.480;29.234;2024-01-30T08:43:53;84537.77;;;28.01;39.03
79142;BME280;68550;-26.480;29.234;2024-01-30T08:46:19;84536.32;;;28.02;38.83
79142;BME280;68550;-26.480;29.234;2024-01-30T08:48:47;84539.19;;;27.86;39.18
79142;BME280;68550;-26.480;29.234;2024-01-30T08:51:07;84537.55;;;28.21;39.03
79142;BME280;68550;-26.480;29.234;2024-01-30T08:53:33;84533.93;;;28.03;39.19
79142;BME280;68550;-26.480;29.234;2024-01-30T08:55:58;84532.41;;;28.25;38.98
79142;BME280;68550;-26.480;29.234;2024-01-30T08:58:24;84528.38;;;28.42;38.89
79142;BME280;68550;-26.480;29.234;2024-01-30T09:00:53;84527.78;;;28.38;38.94
79142;BME280;68550;-26.480;29.234;2024-01-30T09:03:14;84527.75;;;27.81;39.03
79142;BME280;68550;-26.480;29.234;2024-01-30T09:05:39;84529.04;;;28.31;39.09
79142;BME280;68550;-26.480;29.234;2024-01-30T09:08:05;84524.46;;;28.32;39.04
79142;BME280;68550;-26.480;29.234;2024-01-30T09:10:30;84520.17;;;28.48;38.95
79142;BME280;68550;-26.480;29.234;2024-01-30T09:12:55;84520.56;;;28.44;38.98
79142;BME280;68550;-26.480;29.234;2024-01-30T09:15:21;84516.73;;;28.27;39.20
79142;BME280;68550;-26.480;29.234;2024-01-30T09:17:46;84517.19;;;28.30;39.20
79142;BME280;68550;-26.480;29.234;2024-01-30T09:20:12;84515.89;;;28.19;39.07
79142;BME280;68550;-26.480;29.234;2024-01-30T09:22:37;84515.87;;;28.10;39.41
79142;BME280;68550;-26.480;29.234;2024-01-30T09:25:04;84514.41;;;27.95;39.60
79142;BME280;68550;-26.480;29.234;2024-01-30T09:27:28;84511.44;;;28.34;39.08
79142;BME280;68550;-26.480;29.234;2024-01-30T09:29:53;84509.49;;;28.11;39.33
79142;BME280;68550;-26.480;29.234;2024-01-30T09:32:18;84508.82;;;28.18;39.08
79142;BME280;68550;-26.480;29.234;2024-01-30T09:34:44;84509.32;;;28.16;39.35
79142;BME280;68550;-26.480;29.234;2024-01-30T09:37:11;84509.50;;;28.39;39.16
79142;BME280;68550;-26.480;29.234;2024-01-30T09:39:34;84506.92;;;28.47;39.13
79142;BME280;68550;-26.480;29.234;2024-01-30T09:42:08;84506.08;;;28.34;38.98
79142;BME280;68550;-26.480;29.234;2024-01-30T09:44:29;84501.17;;;28.38;39.21
79142;BME280;68550;-26.480;29.234;2024-01-30T09:46:51;84496.89;;;28.17;39.45
79142;BME280;68550;-26.480;29.234;2024-01-30T09:49:16;84497.65;;;28.04;39.29
79142;BME280;68550;-26.480;29.234;2024-01-30T09:51:42;84497.74;;;28.35;38.92
79142;BME280;68550;-26.480;29.234;2024-01-30T09:54:08;84494.91;;;28.35;38.84
79142;BME280;68550;-26.480;29.234;2024-01-30T09:56:32;84490.83;;;28.47;38.84
79142;BME280;68550;-26.480;29.234;2024-01-30T09:58:59;84492.96;;;28.36;39.05
79142;BME280;68550;-26.480;29.234;2024-01-30T10:01:23;84494.30;;;28.49;38.92
79142;BME280;68550;-26.480;29.234;2024-01-30T10:03:50;84489.91;;;28.73;38.95
79142;BME280;68550;-26.480;29.234;2024-01-30T10:06:12;84487.27;;;28.69;39.02
79142;BME280;68550;-26.480;29.234;2024-01-30T10:08:37;84488.70;;;28.18;39.13
79142;BME280;68550;-26.480;29.234;2024-01-30T10:11:03;84483.58;;;28.55;38.95
79142;BME280;68550;-26.480;29.234;2024-01-30T10:13:32;84483.16;;;28.62;38.99
79142;BME280;68550;-26.480;29.234;2024-01-30T10:15:54;84483.50;;;28.50;38.76
79142;BME280;68550;-26.480;29.234;2024-01-30T10:18:19;84481.33;;;28.76;38.60
79142;BME280;68550;-26.480;29.234;2024-01-30T10:20:44;84480.80;;;28.66;38.92
79142;BME280;68550;-26.480;29.234;2024-01-30T10:23:10;84473.93;;;28.45;38.92
79142;BME280;68550;-26.480;29.234;2024-01-30T10:25:36;84474.88;;;28.33;38.31
79142;BME280;68550;-26.480;29.234;2024-01-30T10:28:03;84479.31;;;28.04;38.41
79142;BME280;68550;-26.480;29.234;2024-01-30T10:30:28;84481.57;;;28.06;38.78
79142;BME280;68550;-26.480;29.234;2024-01-30T10:32:52;84478.18;;;28.68;38.39
79142;BME280;68550;-26.480;29.234;2024-01-30T10:35:17;84475.52;;;28.33;38.64
79142;BME280;68550;-26.480;29.234;2024-01-30T10:37:44;84476.71;;;27.93;38.93
79142;BME280;68550;-26.480;29.234;2024-01-30T10:40:11;84469.51;;;28.49;38.34
79142;BME280;68550;-26.480;29.234;2024-01-30T10:42:33;84470.03;;;28.29;38.63
79142;BME280;68550;-26.480;29.234;2024-01-30T10:45:05;84470.16;;;28.36;38.47
79142;BME280;68550;-26.480;29.234;2024-01-30T10:47:27;84469.13;;;28.17;38.52
79142;BME280;68550;-26.480;29.234;2024-01-30T10:49:50;84465.74;;;28.21;38.06
79142;BME280;68550;-26.480;29.234;2024-01-30T10:52:17;84467.25;;;28.21;38.33
79142;BME280;68550;-26.480;29.234;2024-01-30T10:54:44;84463.98;;;28.22;38.73
79142;BME280;68550;-26.480;29.234;2024-01-30T10:57:06;84460.09;;;28.45;38.58
79142;BME280;68550;-26.480;29.234;2024-01-30T10:59:33;84456.33;;;28.41;38.31
79142;BME280;68550;-26.480;29.234;2024-01-30T11:01:57;84453.07;;;28.58;38.23
79142;BME280;68550;-26.480;29.234;2024-01-30T11:04:22;84454.16;;;28.44;38.77
79142;BME280;68550;-26.480;29.234;2024-01-30T11:06:50;84452.46;;;28.28;38.50
79142;BME280;68550;-26.480;29.234;2024-01-30T11:09:18;84443.37;;;28.57;38.34
79142;BME280;68550;-26.480;29.234;2024-01-30T11:14:06;84444.81;;;28.64;38.32
79142;BME280;68550;-26.480;29.234;2024-01-30T11:16:32;84444.11;;;28.37;38.63
79142;BME280;68550;-26.480;29.234;2024-01-30T11:19:00;84441.76;;;28.79;38.73
79142;BME280;68550;-26.480;29.234;2024-01-30T11:21:21;84440.33;;;28.50;38.83
79142;BME280;68550;-26.480;29.234;2024-01-30T11:23:46;84436.27;;;28.53;38.67
79142;BME280;68550;-26.480;29.234;2024-01-30T11:26:11;84432.69;;;28.37;38.72
79142;BME280;68550;-26.480;29.234;2024-01-30T11:28:40;84433.61;;;28.70;38.48
79142;BME280;68550;-26.480;29.234;2024-01-30T11:31:08;84435.18;;;28.78;38.31
79142;BME280;68550;-26.480;29.234;2024-01-30T11:33:29;84435.62;;;28.76;38.43
79142;BME280;68550;-26.480;29.234;2024-01-30T11:35:53;84434.24;;;28.67;38.12
79142;BME280;68550;-26.480;29.234;2024-01-30T11:38:18;84429.70;;;28.34;38.19
79142;BME280;68550;-26.480;29.234;2024-01-30T11:40:45;84425.15;;;28.75;38.18
79142;BME280;68550;-26.480;29.234;2024-01-30T11:43:09;84423.01;;;28.61;38.35
79142;BME280;68550;-26.480;29.234;2024-01-30T11:45:36;84423.62;;;28.79;38.67
79142;BME280;68550;-26.480;29.234;2024-01-30T11:47:59;84423.28;;;28.66;38.24
79142;BME280;68550;-26.480;29.234;2024-01-30T11:50:25;84420.51;;;28.99;37.91
79142;BME280;68550;-26.480;29.234;2024-01-30T11:52:50;84420.48;;;28.47;38.13
79142;BME280;68550;-26.480;29.234;2024-01-30T11:55:15;84420.33;;;28.98;38.07
79142;BME280;68550;-26.480;29.234;2024-01-30T11:57:43;84419.64;;;28.73;38.46
79142;BME280;68550;-26.480;29.234;2024-01-30T12:00:06;84417.92;;;28.51;38.00
79142;BME280;68550;-26.480;29.234;2024-01-30T12:02:30;84414.72;;;28.60;38.06
79142;BME280;68550;-26.480;29.234;2024-01-30T12:05:03;84416.99;;;28.59;38.19
79142;BME280;68550;-26.480;29.234;2024-01-30T12:07:21;84414.61;;;28.31;37.53
79142;BME280;68550;-26.480;29.234;2024-01-30T12:09:53;84412.91;;;28.57;37.61
79142;BME280;68550;-26.480;29.234;2024-01-30T12:12:12;84412.43;;;28.38;37.98
79142;BME280;68550;-26.480;29.234;2024-01-30T12:14:40;84411.33;;;28.70;37.46
79142;BME280;68550;-26.480;29.234;2024-01-30T12:17:03;84408.83;;;29.06;37.76
79142;BME280;68550;-26.480;29.234;2024-01-30T12:19:29;84412.37;;;28.46;37.38
79142;BME280;68550;-26.480;29.234;2024-01-30T12:21:57;84409.24;;;28.55;37.46
79142;BME280;68550;-26.480;29.234;2024-01-30T12:24:19;84407.95;;;28.47;37.43
79142;BME280;68550;-26.480;29.234;2024-01-30T12:26:44;84410.34;;;28.73;37.50
79142;BME280;68550;-26.480;29.234;2024-01-30T12:29:12;84411.20;;;28.53;36.01
79142;BME280;68550;-26.480;29.234;2024-01-30T12:31:35;84415.28;;;28.90;36.91
79142;BME280;68550;-26.480;29.234;2024-01-30T12:34:03;84418.64;;;28.58;36.95